Aviation Digital Data Service (ADDS)

Output produced by TAFs form (0820 UTC 23 September 2014)
found at http://aviationweather.gov/adds/tafs/
 
KLND 230524Z 2306/2406 VRB05KT P6SM SCT100 
     FM231600 VRB05KT P6SM SCT070 
     FM240200 25007KT P6SM SKC